Skip Navigation Links Skip Navigation Links

Current Weather

Schaumburg Regional, Chicago/Schaumburg, Ill.

For information only: do not use for flight planning or navigation.
Latest weather
Observation time Sunday, October 13, 2019 5:55 PM CDT
Local time Sunday, October 13, 2019 6:05 PM CDT
Flight conditions Visual Meteorological Conditions
Winds
Wind direction West (280°)
Winds variable from 240° to 320°
Wind speed 8 mph
Visibility 10 mi.
Sky condition
Ceiling 6,000 ft. broken clouds
Cloud layer broken clouds 6,000 ft.
Cloud layer overcast 7,500 ft.
Temperature 47°F
Dewpoint 33°F
Altimeter 29.87 in.Hg
Derived measurements
Relative humidity 57%
Wind chill 44°F
Density altitude 190 ft.
Remarks
Fully automated report.
Automated weather observing station with precipitation discriminator.
METAR K06C 132255Z AUTO 28007KT 240V320 10SM BKN060 OVC075 09/01 A2987 RMK AO2 T00860006

Settings

Location code

InnerDrive.Weather 4.0.6770.0 Release CLR 4.0.30319.42000
Copyright ©2018 Inner Drive Technology. All rights reserved. Portions Copyright ©1986-2018 David Braverman.

Find weather

Site navigation


Skip Navigation Links

Place info

Page info

PayPal - The safer, easier way to pay online!

Return home.

Copyright ©2019 Inner Drive Technology. Purveyors of fine, hand-crafted computer software. Page printed 2019-10-13T23:05:05 UTC.